世纪气象云

 找回密码
 注册

QQ登录

只需一步,快速开始

楼主: 将臣
收起左侧

[寒潮强冷] 08/09年小寒天气追击贴

[复制链接]
发表于 2009-1-7 12:10 | 显示全部楼层
省台的~~
冷空气“先头部队”已到我省,主力9日南下



北方冷空气昨天自北向南影响我省,7~8日继续有小股冷空气补充,气温将继续下降。冷空气主力将在9日南下, 10~11日我省有较大面积的低温霜冻。



北方冷空气6日自北向南影响我省,造成我省大部分地区气温下降。7日早晨,我省大部分地区气温比6日早晨下降了1~4℃。7日早晨最低气温大体分布如下:粤北5~9℃,南部地区10~14℃,其余地区8~10℃。在冷空气影响下,粤北的偏北山区转阴天,局部地区还下了小雨。

广州市6日晴天,白天最高气温22.7℃,7日早晨最低气温10.2℃。

预计, 7日白天到8日我省继续受弱冷空气影响, 7日白天粤北大部阴天,其中偏北地区局部有小雨,其余地区晴天。7日夜间到8日粤北阴天转多云,其余地区晴天到多云,8日早晨最低气温:粤北的偏北山区4~5℃,粤北的偏南地区和肇庆市6~9℃,其余地区8~12℃。9日北方冷空气主力南下影响我省,全省晴天,北风加大,日平均气温将再下降4℃左右。9日早晨粤北偏北山区最低气温3~4℃,粤北偏南地区和肇庆市北部最低气温5℃左右。10~11日我省晴天到多云,最低气温进一步下降,并将出现大面积的低温霜冻天气。

广州市7日夜间到8日多云,8~18℃;9日晴天,7~17℃;10日晴,5~16℃。

另外,6日我省周边的贵州、湖南、江西出现了雨雪天气,贵州东南部还出现了冻雨,广西北部也下了小雨。预计今晚起湖南、江西的雨雪天气将减弱。

冷空气陆续南下,气温连续下降,请注意做好防寒防冻工作。天气干燥,火灾危险性极高,请注意森林防火。

评分

1

查看全部评分

发表于 2009-1-8 13:04 | 显示全部楼层
7日20时至8日08时,我市共有77个区域气象观测站记录到10度以下低温,最低三洲田7.3度。深圳国家基本站记录到最低温度10.0度。
发表于 2009-1-8 13:11 | 显示全部楼层
我省将持续寒冷粤北有冰冻

请注意防寒防冻和交通安全



北方冷空气已陆续进入我省,9~11日将持续受冷空气影响,气温逐日走低,天气干燥寒冷,早晚气温低,但全省基本无雨。我省除沿海市县外,大部分市县早晨最低气温在5℃以下,部分市县有霜冻,特别是粤北山区的最低气温在0℃以下,并伴有冰冻。展望12~13日又有中等强度冷空气补充,全省寒冷天气持续。另外,我省海面将持续有6-8级偏北大风。请注意加强防寒保暖及防火工作;粤北公路交通要注意路面防滑和行车安全。



据全省气象站网监测,最近几天不时有北方冷空气补充南下进入我省,并造成我省各地气温下降。其中,8日早晨粤北已有少数市县出现4~5℃的低温,广州市五山观象台录到的最低气温8.0℃,较7日下降了2℃。

预计,未来几天我省将持续受冷空气影响,气温逐日走低,天气干燥寒冷,早晚气温低,但全省基本无雨;我省除沿海市县外,大部分市县早晨最低气温在5℃以下,部分市县有霜冻,特别是粤北山区的最低气温在0℃以下,并伴有冰冻。逐日天气预报如下:

9日,粤北多云转晴天,其余市县晴天,北风进一步加大,粤北及肇庆、云浮的最低气温在3~5℃,粤北高寒山区在0℃左右;

10~11日全省以晴天为主,早晨最低气温进一步下降,并将出现大面积的低温霜冻天气,粤北高寒山区的最低气温在0~-3℃,有冰冻。

广州市受冷空气影响,未来3天以晴好天气为主,气温将持续下降,9日早晨最低气温6℃左右;10~11日最低气温4~5℃。

展望12~13日又有中等强度冷空气补充南下影响我省,全省寒冷天气持续,但依然没有降水。

另外,在冷空气影响下,我省海面及南海海域将持续有6~8级偏北大风。

冷空气陆续南下,气温持续走低,请注意做好露宿者、牲畜、水产养殖和热带作物的防寒防冻工作;粤北公路交通要注意路面防滑和行车安全;空气干燥,火灾危险性极高,请继续做好家居用火安全和森林防火工作。
发表于 2009-1-9 13:09 | 显示全部楼层
8日20时至9日08时,我市(深圳)共有100个气象站记录到10度以下低温,最低三洲田4.6度。深圳国家基本站记录到最低温度8.2度。
发表于 2009-1-9 15:50 | 显示全部楼层
武汉昨夜一度出现能见度仅100m的大雾天气

METAR ZHHH 090400Z 36002MPS 300V060 8000 SKC 06/M04 Q1037 NOSIG   
METAR ZHHH 090300Z 36002MPS 320V040 4000 BR SKC 03/03 Q1038 NOSIG
METAR ZHHH 090200Z 32002MPS 290V360 0800 R04/0450V0700N FZFG SCT004 M01/M01 Q1039 NOSIG   
METAR ZHHH 090100Z 32002MPS 280V020 0400 R04/0800V1000N FZFG SKC M02/M02 Q1038 BECMG 0800 FG  
METAR ZHHH 090000Z 32002MPS 280V360 0500 R04/0800V1000N FZFG SCT004 M02/M02 Q1038 BECMG 0800 FG   
METAR ZHHH 082300Z 32002MPS 290V350 0800 R04/1000N FZFG SCT004 M02/M02 Q1037 BECMG TL2340 1000 BR
METAR ZHHH 082200Z 33002MPS 280V360 0600 R04/0600V1000D FZFG SKC M01/M01 Q1037 NOSIG  
METAR ZHHH 082100Z 32002MPS 290V010 0200 R04/0150U FG SKC 00/00 Q1037 NOSIG   
METAR ZHHH 082000Z 28003MPS 250V330 0100 R04/0125N FG SKC 00/00 Q1037 NOSIG   
METAR ZHHH 081900Z 27003MPS 0100 R04/0125N FG SKC 01/01 Q1037 NOSIG   
METAR ZHHH 081800Z 27003MPS 0100 R04/0150N FG SKC 01/01 Q1037 NOSIG   
METAR ZHHH 081700Z 28002MPS 0200 R04/0150V0250N FG SKC 00/00 Q1037 NOSIG  
METAR ZHHH 081600Z 33002MPS 0800 R04/0800V0900N FG SKC 01/01 Q1037 NOSIG  
METAR ZHHH 081500Z 33002MPS 1000 R04/1000N BR SKC 02/01 Q1037 NOSIG   
METAR ZHHH 081400Z 34002MPS 1000 R04/1000N BR SKC 02/01 Q1036 NOSIG   
发表于 2009-1-9 16:05 | 显示全部楼层
收到天气短信,广州未来24小时气温将降到5度以下,发出橙警。。。。
发表于 2009-1-9 16:06 | 显示全部楼层
澳門今早最低8.8度,剛剛除下了強烈季候風信號.
发表于 2009-1-9 16:09 | 显示全部楼层
目前华东山东和江苏一带气温较低,果真严重偏东啊~~
发表于 2009-1-9 17:03 | 显示全部楼层


我也在15点36分收到气象台的特别提醒:受冷空气影响,未来24h内本地最低温度将降到5度以下,广州气象台已在9日下午发布了寒冷橙色预警信号,请.......。
发表于 2009-1-9 17:32 | 显示全部楼层

香港天文台同時發出三個警告。。

紅 色 火 災 危 險 警 告
火 災 危 險 警 告 為 紅 色 , 表 示 火 災 危 險 性 極 高 。


以 上 天 氣 稿 由 天 文 台 於 2009 年 01 月 08 日 06 時 00 分 發 出


--------------------------------------------------------------------------------
寒 冷 天 氣 警 告
寒 冷 天 氣 警 告

寒 冷 天 氣 警 告 現 正 生 效 。

天 文 台 預 測 未 來 數 天 本 港 天 氣 寒 冷 。

由 於 本 港 現 正 受 到 寒 冷 冬 季 季 候 風 影 響 , 市 民 應 注
意 保 暖 , 多 穿 禦 寒 衣 物 , 以 防 因 嚴 寒 影 響 健 康 , 並
應 保 持 室 內 空 氣 流 通 。

如 必 須 外 出 , 應 避 免 長 時 間 置 身 在 寒 風 中 。

如 你 認 識 獨 居 的 長 者 或 慢 性 病 患 者 , 請 間 中 致 電 或
探 訪 他 們 , 看 看 是 否 需 要 提 供 幫 助 。

市 民 用 暖 爐 或 暖 風 機 時 , 請 注 意 消 防 安 全 , 遠 離 易
燃 物 件 , 及 避 免 電 力 負 荷 過 重 , 並 切 勿 於 室 內 生 火
取 暖 。

不 論 氣 溫 多 少 , 當 使 用 舊 式 氣 體 燃 料 熱 水 爐 時 , 要
確 保 室 內 有 大 量 清 新 空 氣 。

以 上 天 氣 稿 由 天 文 台 於 2009 年 01 月 09 日 16 時 21 分 發 出



--------------------------------------------------------------------------------
霜 凍 警 告
霜 凍 警 告

天 文 台 提 醒 農 友 及 有 關 人 士 , 晚 間 高 地 及 新 界 北 部
地 區 可 能 有 地 面 霜 。

以 上 天 氣 稿 由 天 文 台 於 2009 年 01 月 09 日 16 時 33 分 發 出
您需要登录后才可以回帖 登录 | 注册

本版积分规则

Archiver|手机版|世纪气象云 | | | 关于我们

GMT+8, 2019-12-11 13:59 , Processed in 0.048006 second(s), 19 queries .

Powered by Discuz! X3.4

© 2001-2017 Comsenz Inc.

快速回复 返回顶部 返回列表